首页
METAR-TAF:

METAR-TAF

机场 :

利沃夫, 乌克兰

纬度: 49-49N, 经度: 023-57E, 海拔: 319米

当前天气观测

该预报发布于33分钟前的09:00 UTC
风速4节,风向北转东北
温度 28°C
湿度 51%
气压 1023 hPa
能见度10公里或以上
1500米以下无云,无积雨云

METAR: UKLL 080900Z 02002MPS CAVOK 28/17 Q1023 R31/D NOSIG

时间: 12:33 (09:33 UTC)

预报

该预报发布于4小时和28分钟前的05:05 UTC
预报有效从08日的 06点(UTC)到 09日的 06点(UTC)
风速2节,风向多变
能见度10公里或以上
多云层高于3000英尺
短暂存在
从 08日的 06点(UTC)到 08日的 09点(UTC)
风速10节,风向东北
成为
从 08日的 09点(UTC)到 08日的 10点(UTC)
风速8节,风向
短暂存在
从 08日的 10点(UTC)到 08日的 18点(UTC)
风速10节,风向东转东北,有时为19节阵风
散云层高于2500英尺, 积雨云.
成为
从 08日的 20点(UTC)到 08日的 22点(UTC)
风速2节,风向多变

TAF: UKLL 080505Z 0806/0906 VRB01MPS 9999 BKN030 TX28/0812Z TN17/0903Z TEMPO 0806/0809 05005MPS BECMG 0809/0810 09004MPS TEMPO 0810/0818 07005G10MPS SCT025CB BECMG 0820/0822 VRB01MPS

超过4000个机场的气象观测和天气预报(METAR&TAF报告)。

可查询的气象台以黄色和红色小点在地图上表示。

将鼠标移到小点上方,可查看气象台名称。

然后点击查看天气观测和预报。

如需切换地图:点击带黑十字的绿色按钮放大地图;点击带横线的绿色按钮缩小地图;或者点击绿色箭头查看邻近地区的地图。


METAR-TAF: